Manistee, Michigan
Current Conditions -  °F | °C
As of 1:15 AM on Friday 19 Dec 2014 (Local Time) from KMBL Reporting Station
Clear Clear  
Wind Chill:   Ceiling: Unl
Heat Index: 10°   Visibility: 10mi
Dew Point:   Wind: 6mph
Humidity: 92%   Direction: 100°E
Pressure: 30.24"   Gusts: NA
Location:  44.24°N, 86.32°W
Report Text: KMBL 190615Z AUTO 10005KT 10SM CLR M12/M13 A3024 RMK AO1
Loading
Personal Weather Stations






























Interactive Weather Map New forecast layout! Learn more

10-Day Weather Forecast

Advertisements
Track Severe Weather on mobile